sensor_id;sensor_type;location;lat;lon;timestamp;pressure;altitude;pressure_sealevel;temperature;humidity
44144;BME280;43510;51.920;4.492;2023-01-27T00:21:47;66821.66;;;8.67;97.00
44144;BME280;43510;51.920;4.492;2023-01-27T00:24:33;66837.97;;;8.84;97.00
44144;BME280;43510;51.920;4.492;2023-01-27T00:27:06;66835.72;;;8.82;96.96
44144;BME280;43510;51.920;4.492;2023-01-27T00:29:36;66835.34;;;8.84;97.18
44144;BME280;43510;51.920;4.492;2023-01-27T00:32:03;66835.19;;;8.81;97.24
44144;BME280;43510;51.920;4.492;2023-01-27T00:34:47;66834.06;;;8.80;97.16
44144;BME280;43510;51.920;4.492;2023-01-27T00:37:12;66826.84;;;8.74;97.23
44144;BME280;43510;51.920;4.492;2023-01-27T00:39:38;66838.19;;;8.79;97.09
44144;BME280;43510;51.920;4.492;2023-01-27T00:42:03;66835.19;;;8.81;96.82
44144;BME280;43510;51.920;4.492;2023-01-27T00:44:28;66836.47;;;8.85;97.05
44144;BME280;43510;51.920;4.492;2023-01-27T00:46:54;66834.06;;;8.80;96.74
44144;BME280;43510;51.920;4.492;2023-01-27T00:49:19;66835.72;;;8.82;96.88
44144;BME280;43510;51.920;4.492;2023-01-27T00:51:46;66836.84;;;8.83;96.83
44144;BME280;43510;51.920;4.492;2023-01-27T00:54:11;66838.53;;;8.84;96.56
44144;BME280;43510;51.920;4.492;2023-01-27T00:56:44;66833.53;;;8.80;96.69
44144;BME280;43510;51.920;4.492;2023-01-27T00:59:10;66835.00;;;8.79;96.79
44144;BME280;43510;51.920;4.492;2023-01-27T01:01:35;66833.34;;;8.77;96.27
44144;BME280;43510;51.920;4.492;2023-01-27T01:04:03;66832.97;;;8.79;96.67
44144;BME280;43510;51.920;4.492;2023-01-27T01:06:28;66835.19;;;8.81;96.35
44144;BME280;43510;51.920;4.492;2023-01-27T01:08:56;66834.84;;;8.76;96.33
44144;BME280;43510;51.920;4.492;2023-01-27T01:11:22;66837.25;;;8.81;96.06
44144;BME280;43510;51.920;4.492;2023-01-27T01:13:48;66837.97;;;8.84;96.19
44144;BME280;43510;51.920;4.492;2023-01-27T01:16:19;66839.09;;;8.85;95.67
44144;BME280;43510;51.920;4.492;2023-01-27T01:18:45;66828.13;;;8.77;95.60
44144;BME280;43510;51.920;4.492;2023-01-27T01:21:11;66820.16;;;8.68;95.97
44144;BME280;43510;51.920;4.492;2023-01-27T01:23:38;66829.44;;;8.74;95.79
44144;BME280;43510;51.920;4.492;2023-01-27T01:26:06;66837.81;;;8.81;95.40
44144;BME280;43510;51.920;4.492;2023-01-27T01:28:31;66831.28;;;8.78;95.51
44144;BME280;43510;51.920;4.492;2023-01-27T01:31:04;66830.16;;;8.77;95.37
44144;BME280;43510;51.920;4.492;2023-01-27T01:33:30;66833.34;;;8.77;95.73
44144;BME280;43510;51.920;4.492;2023-01-27T01:35:55;66825.72;;;8.73;95.56
44144;BME280;43510;51.920;4.492;2023-01-27T01:38:20;66832.22;;;8.76;95.45
44144;BME280;43510;51.920;4.492;2023-01-27T01:40:46;66824.59;;;8.72;95.60
44144;BME280;43510;51.920;4.492;2023-01-27T01:43:15;66827.94;;;8.75;95.55
44144;BME280;43510;51.920;4.492;2023-01-27T01:45:45;66826.50;;;8.69;95.21
44144;BME280;43510;51.920;4.492;2023-01-27T01:48:16;66819.03;;;8.67;95.29
44144;BME280;43510;51.920;4.492;2023-01-27T01:53:37;66806.78;;;8.55;94.88
44144;BME280;43510;51.920;4.492;2023-01-27T01:56:12;66812.34;;;8.60;94.56
44144;BME280;43510;51.920;4.492;2023-01-27T01:58:40;66810.53;;;8.56;94.09
44144;BME280;43510;51.920;4.492;2023-01-27T02:01:06;66797.13;;;8.51;93.91
44144;BME280;43510;51.920;4.492;2023-01-27T02:03:33;66799.38;;;8.46;93.98
44144;BME280;43510;51.920;4.492;2023-01-27T02:06:01;66793.81;;;8.41;94.16
44144;BME280;43510;51.920;4.492;2023-01-27T02:08:34;66787.88;;;8.38;94.19
44144;BME280;43510;51.920;4.492;2023-01-27T02:11:02;66781.56;;;8.30;93.87
44144;BME280;43510;51.920;4.492;2023-01-27T02:13:27;66777.25;;;8.29;93.61
44144;BME280;43510;51.920;4.492;2023-01-27T02:15:53;66774.47;;;8.26;93.52
44144;BME280;43510;51.920;4.492;2023-01-27T02:18:19;66768.91;;;8.21;93.58
44144;BME280;43510;51.920;4.492;2023-01-27T02:20:50;66753.88;;;8.07;93.90
44144;BME280;43510;51.920;4.492;2023-01-27T02:23:31;66761.69;;;8.14;93.72
44144;BME280;43510;51.920;4.492;2023-01-27T02:26:11;66763.72;;;8.14;93.92
44144;BME280;43510;51.920;4.492;2023-01-27T02:28:39;66761.50;;;8.12;93.39
44144;BME280;43510;51.920;4.492;2023-01-27T02:36:16;66751.66;;;8.05;93.17
44144;BME280;43510;51.920;4.492;2023-01-27T02:38:48;66736.63;;;7.92;93.28
44144;BME280;43510;51.920;4.492;2023-01-27T02:43:48;66750.75;;;8.00;93.26
44144;BME280;43510;51.920;4.492;2023-01-27T02:53:59;66737.00;;;7.90;93.83
44144;BME280;43510;51.920;4.492;2023-01-27T03:14:30;66733.28;;;7.89;94.72
44144;BME280;43510;51.920;4.492;2023-01-27T03:17:14;66740.53;;;7.95;94.87
44144;BME280;43510;51.920;4.492;2023-01-27T03:19:58;66732.00;;;7.85;94.69
44144;BME280;43510;51.920;4.492;2023-01-27T03:22:23;66725.88;;;7.79;94.84
44144;BME280;43510;51.920;4.492;2023-01-27T03:27:27;66709.38;;;7.67;94.88
44144;BME280;43510;51.920;4.492;2023-01-27T03:29:52;66706.03;;;7.64;95.03
44144;BME280;43510;51.920;4.492;2023-01-27T03:34:56;66719.22;;;7.73;94.50
44144;BME280;43510;51.920;4.492;2023-01-27T03:37:26;66708.63;;;7.64;94.55
44144;BME280;43510;51.920;4.492;2023-01-27T03:40:11;66711.97;;;7.67;94.16
44144;BME280;43510;51.920;4.492;2023-01-27T03:42:59;66704.38;;;7.62;94.16
44144;BME280;43510;51.920;4.492;2023-01-27T03:45:47;66701.03;;;7.59;94.19
44144;BME280;43510;51.920;4.492;2023-01-27T03:53:42;66695.47;;;7.54;94.16
44144;BME280;43510;51.920;4.492;2023-01-27T04:19:23;66668.03;;;7.27;95.08
44144;BME280;43510;51.920;4.492;2023-01-27T04:21:48;66680.84;;;7.38;95.25
44144;BME280;43510;51.920;4.492;2023-01-27T04:24:14;66678.94;;;7.42;94.76
44144;BME280;43510;51.920;4.492;2023-01-27T04:26:51;66676.94;;;7.35;94.84
44144;BME280;43510;51.920;4.492;2023-01-27T04:29:19;66680.28;;;7.38;94.97
44144;BME280;43510;51.920;4.492;2023-01-27T04:31:45;66660.41;;;7.22;94.73
44144;BME280;43510;51.920;4.492;2023-01-27T04:34:11;66681.38;;;7.39;94.54
44144;BME280;43510;51.920;4.492;2023-01-27T04:39:14;66679.53;;;7.35;94.53
44144;BME280;43510;51.920;4.492;2023-01-27T04:41:40;66681.22;;;7.36;94.52
44144;BME280;43510;51.920;4.492;2023-01-27T04:44:05;66667.66;;;7.29;94.61
44144;BME280;43510;51.920;4.492;2023-01-27T04:49:06;66662.66;;;7.24;93.86
44144;BME280;43510;51.920;4.492;2023-01-27T04:51:32;66671.00;;;7.32;93.87
44144;BME280;43510;51.920;4.492;2023-01-27T04:53:58;66671.94;;;7.30;93.46
44144;BME280;43510;51.920;4.492;2023-01-27T04:56:37;66673.59;;;7.32;93.46
44144;BME280;43510;51.920;4.492;2023-01-27T04:59:05;66671.00;;;7.32;93.44
44144;BME280;43510;51.920;4.492;2023-01-27T05:01:40;66675.09;;;7.31;93.54
44144;BME280;43510;51.920;4.492;2023-01-27T05:04:06;66671.56;;;7.32;93.15
44144;BME280;43510;51.920;4.492;2023-01-27T05:06:34;66666.94;;;7.26;93.60
44144;BME280;43510;51.920;4.492;2023-01-27T05:08:59;66662.09;;;7.24;92.82
44144;BME280;43510;51.920;4.492;2023-01-27T05:11:25;66656.34;;;7.16;93.32
44144;BME280;43510;51.920;4.492;2023-01-27T05:13:51;66650.41;;;7.13;93.58
44144;BME280;43510;51.920;4.492;2023-01-27T05:16:19;66638.19;;;7.02;93.70
44144;BME280;43510;51.920;4.492;2023-01-27T05:18:47;66653.75;;;7.16;93.77
44144;BME280;43510;51.920;4.492;2023-01-27T05:21:19;66661.75;;;7.19;93.42
44144;BME280;43510;51.920;4.492;2023-01-27T05:23:45;66663.19;;;7.25;93.14
44144;BME280;43510;51.920;4.492;2023-01-27T05:26:14;66654.66;;;7.22;92.18
44144;BME280;43510;51.920;4.492;2023-01-27T05:28:41;66658.00;;;7.25;91.82
44144;BME280;43510;51.920;4.492;2023-01-27T05:33:42;66665.41;;;7.27;90.87
44144;BME280;43510;51.920;4.492;2023-01-27T05:41:20;66662.66;;;7.24;90.09
44144;BME280;43510;51.920;4.492;2023-01-27T05:43:51;66654.28;;;7.17;89.96
44144;BME280;43510;51.920;4.492;2023-01-27T06:25:04;66660.41;;;7.22;86.01
44144;BME280;43510;51.920;4.492;2023-01-27T06:27:30;66649.13;;;7.10;86.45
44144;BME280;43510;51.920;4.492;2023-01-27T06:29:55;66672.09;;;7.33;86.30
44144;BME280;43510;51.920;4.492;2023-01-27T06:32:21;66673.97;;;7.30;86.58
44144;BME280;43510;51.920;4.492;2023-01-27T06:37:21;66661.38;;;7.21;85.86
44144;BME280;43510;51.920;4.492;2023-01-27T06:39:47;66669.31;;;7.30;85.38
44144;BME280;43510;51.920;4.492;2023-01-27T06:42:12;66662.44;;;7.29;85.53
44144;BME280;43510;51.920;4.492;2023-01-27T06:47:13;66672.09;;;7.33;85.61
44144;BME280;43510;51.920;4.492;2023-01-27T06:54:50;66683.78;;;7.44;85.56
44144;BME280;43510;51.920;4.492;2023-01-27T06:57:15;66679.88;;;7.40;84.84
44144;BME280;43510;51.920;4.492;2023-01-27T06:59:45;66671.75;;;7.28;85.02
44144;BME280;43510;51.920;4.492;2023-01-27T07:02:11;66682.47;;;7.40;85.19
44144;BME280;43510;51.920;4.492;2023-01-27T07:04:37;66676.94;;;7.35;85.10
44144;BME280;43510;51.920;4.492;2023-01-27T07:07:02;66681.38;;;7.39;84.97
44144;BME280;43510;51.920;4.492;2023-01-27T07:12:04;66684.53;;;7.39;84.60
44144;BME280;43510;51.920;4.492;2023-01-27T07:14:30;66684.72;;;7.42;84.18
44144;BME280;43510;51.920;4.492;2023-01-27T07:16:56;66680.28;;;7.38;83.94
44144;BME280;43510;51.920;4.492;2023-01-27T07:19:21;66672.47;;;7.31;82.99
44144;BME280;43510;51.920;4.492;2023-01-27T07:29:32;66645.94;;;7.09;81.42
44144;BME280;43510;51.920;4.492;2023-01-27T07:31:58;66658.75;;;7.21;82.02
44144;BME280;43510;51.920;4.492;2023-01-27T07:34:23;66663.56;;;7.23;81.94
44144;BME280;43510;51.920;4.492;2023-01-27T07:36:48;66646.50;;;7.10;80.62
44144;BME280;43510;51.920;4.492;2023-01-27T07:39:14;66651.91;;;7.12;80.75
44144;BME280;43510;51.920;4.492;2023-01-27T07:41:39;66648.75;;;7.12;80.09
44144;BME280;43510;51.920;4.492;2023-01-27T07:44:05;66641.34;;;7.03;80.06
44144;BME280;43510;51.920;4.492;2023-01-27T07:46:32;66638.34;;;7.05;80.32
44144;BME280;43510;51.920;4.492;2023-01-27T07:48:58;66634.63;;;7.04;80.29
44144;BME280;43510;51.920;4.492;2023-01-27T07:51:23;66652.47;;;7.13;81.01
44144;BME280;43510;51.920;4.492;2023-01-27T07:53:49;66656.53;;;7.19;80.67
44144;BME280;43510;51.920;4.492;2023-01-27T07:56:16;66645.78;;;7.07;80.96
44144;BME280;43510;51.920;4.492;2023-01-27T07:58:41;66639.84;;;7.04;81.34
44144;BME280;43510;51.920;4.492;2023-01-27T08:01:12;66656.53;;;7.19;81.25
44144;BME280;43510;51.920;4.492;2023-01-27T08:03:37;66670.25;;;7.29;81.29
44144;BME280;43510;51.920;4.492;2023-01-27T08:06:07;66675.44;;;7.36;80.68
44144;BME280;43510;51.920;4.492;2023-01-27T08:08:33;66663.19;;;7.25;80.32
44144;BME280;43510;51.920;4.492;2023-01-27T08:11:05;66653.75;;;7.16;79.48
44144;BME280;43510;51.920;4.492;2023-01-27T08:13:35;66653.19;;;7.16;79.61
44144;BME280;43510;51.920;4.492;2023-01-27T08:16:02;66655.22;;;7.15;78.97
44144;BME280;43510;51.920;4.492;2023-01-27T08:18:35;66650.22;;;7.11;78.14
44144;BME280;43510;51.920;4.492;2023-01-27T08:21:03;66665.25;;;7.24;78.10
44144;BME280;43510;51.920;4.492;2023-01-27T08:23:29;66650.97;;;7.14;77.17
44144;BME280;43510;51.920;4.492;2023-01-27T08:25:57;66654.28;;;7.17;77.58
44144;BME280;43510;51.920;4.492;2023-01-27T08:28:33;66655.59;;;7.20;77.53
44144;BME280;43510;51.920;4.492;2023-01-27T08:31:11;66651.34;;;7.12;77.66
44144;BME280;43510;51.920;4.492;2023-01-27T08:33:44;66649.28;;;7.12;77.80
44144;BME280;43510;51.920;4.492;2023-01-27T08:36:12;66662.47;;;7.22;78.01
44144;BME280;43510;51.920;4.492;2023-01-27T08:38:38;66664.69;;;7.24;78.69
44144;BME280;43510;51.920;4.492;2023-01-27T08:41:06;66672.09;;;7.33;78.97
44144;BME280;43510;51.920;4.492;2023-01-27T08:43:32;66675.06;;;7.38;78.77
44144;BME280;43510;51.920;4.492;2023-01-27T08:45:57;66686.94;;;7.44;79.29
44144;BME280;43510;51.920;4.492;2023-01-27T09:01:29;66687.66;;;7.47;79.76
44144;BME280;43510;51.920;4.492;2023-01-27T09:03:58;66669.88;;;7.31;79.99
44144;BME280;43510;51.920;4.492;2023-01-27T09:06:29;66658.75;;;7.21;79.36
44144;BME280;43510;51.920;4.492;2023-01-27T09:08:54;66675.44;;;7.36;79.56
44144;BME280;43510;51.920;4.492;2023-01-27T09:11:36;66668.03;;;7.27;78.79
44144;BME280;43510;51.920;4.492;2023-01-27T09:14:06;66649.28;;;7.12;78.74
44144;BME280;43510;51.920;4.492;2023-01-27T09:16:33;66645.19;;;7.13;78.25
44144;BME280;43510;51.920;4.492;2023-01-27T09:29:20;66706.78;;;7.60;77.03
44144;BME280;43510;51.920;4.492;2023-01-27T09:31:50;66739.25;;;7.92;76.70
44144;BME280;43510;51.920;4.492;2023-01-27T09:34:22;66756.84;;;8.12;76.14
44144;BME280;43510;51.920;4.492;2023-01-27T09:36:51;66777.81;;;8.29;75.76
44144;BME280;43510;51.920;4.492;2023-01-27T10:16:54;66948.28;;;9.84;69.76
44144;BME280;43510;51.920;4.492;2023-01-27T10:25:15;66958.72;;;9.91;69.14
44144;BME280;43510;51.920;4.492;2023-01-27T10:27:55;66980.47;;;10.11;69.29
44144;BME280;43510;51.920;4.492;2023-01-27T10:33:00;67002.94;;;10.34;67.90
44144;BME280;43510;51.920;4.492;2023-01-27T10:35:51;67039.03;;;10.64;66.75
44144;BME280;43510;51.920;4.492;2023-01-27T10:46:19;67160.72;;;11.74;64.01
44144;BME280;43510;51.920;4.492;2023-01-27T10:49:06;67142.81;;;11.58;63.40
44144;BME280;43510;51.920;4.492;2023-01-27T10:51:41;67118.44;;;11.38;63.26
44144;BME280;43510;51.920;4.492;2023-01-27T10:54:23;67076.19;;;11.02;64.19
44144;BME280;43510;51.920;4.492;2023-01-27T10:57:19;67054.25;;;10.80;64.92
44144;BME280;43510;51.920;4.492;2023-01-27T11:02:45;67011.31;;;10.41;66.26
44144;BME280;43510;51.920;4.492;2023-01-27T11:05:19;67000.72;;;10.32;66.42
44144;BME280;43510;51.920;4.492;2023-01-27T11:08:02;66976.91;;;10.12;67.03
44144;BME280;43510;51.920;4.492;2023-01-27T11:10:36;66957.59;;;9.90;67.88
44144;BME280;43510;51.920;4.492;2023-01-27T11:13:04;66934.91;;;9.72;68.00
44144;BME280;43510;51.920;4.492;2023-01-27T11:15:32;66926.38;;;9.62;68.63
44144;BME280;43510;51.920;4.492;2023-01-27T11:18:12;66915.97;;;9.55;69.33
44144;BME280;43510;51.920;4.492;2023-01-27T11:20:42;66916.91;;;9.53;69.54
44144;BME280;43510;51.920;4.492;2023-01-27T11:23:22;66914.84;;;9.54;70.10
44144;BME280;43510;51.920;4.492;2023-01-27T11:37:25;66917.63;;;9.56;70.82
44144;BME280;43510;51.920;4.492;2023-01-27T11:39:51;66910.38;;;9.50;71.04
44144;BME280;43510;51.920;4.492;2023-01-27T11:42:16;66915.81;;;9.52;71.18
44144;BME280;43510;51.920;4.492;2023-01-27T11:44:43;66919.53;;;9.53;71.22
44144;BME280;43510;51.920;4.492;2023-01-27T11:47:23;66915.97;;;9.55;71.15
44144;BME280;43510;51.920;4.492;2023-01-27T11:49:51;66918.75;;;9.57;71.23
44144;BME280;43510;51.920;4.492;2023-01-27T11:52:19;66925.44;;;9.63;71.26
44144;BME280;43510;51.920;4.492;2023-01-27T11:55:02;66926.56;;;9.64;70.65
44144;BME280;43510;51.920;4.492;2023-01-27T11:57:34;66923.22;;;9.61;70.20
44144;BME280;43510;51.920;4.492;2023-01-27T12:02:37;66933.44;;;9.66;70.51
44144;BME280;43510;51.920;4.492;2023-01-27T19:00:25;66654.69;;;7.15;83.47
44144;BME280;43510;51.920;4.492;2023-01-27T19:02:53;66647.06;;;7.10;83.74
44144;BME280;43510;51.920;4.492;2023-01-27T19:10:50;66657.47;;;7.17;84.00
44144;BME280;43510;51.920;4.492;2023-01-27T19:13:17;66651.53;;;7.14;84.23
44144;BME280;43510;51.920;4.492;2023-01-27T19:15:50;66666.19;;;7.23;83.58
44144;BME280;43510;51.920;4.492;2023-01-27T19:18:45;66676.22;;;7.32;83.01
44144;BME280;43510;51.920;4.492;2023-01-27T19:21:12;66659.84;;;7.22;82.92
44144;BME280;43510;51.920;4.492;2023-01-27T19:23:39;66654.69;;;7.15;82.32
44144;BME280;43510;51.920;4.492;2023-01-27T19:26:18;66663.75;;;7.25;82.38
44144;BME280;43510;51.920;4.492;2023-01-27T19:29:02;66664.88;;;7.26;82.49
44144;BME280;43510;51.920;4.492;2023-01-27T19:31:27;66656.34;;;7.16;82.67
44144;BME280;43510;51.920;4.492;2023-01-27T19:33:57;66658.91;;;7.23;82.63
44144;BME280;43510;51.920;4.492;2023-01-27T19:36:29;66645.41;;;7.09;82.84
44144;BME280;43510;51.920;4.492;2023-01-27T19:39:27;66663.97;;;7.21;83.03
44144;BME280;43510;51.920;4.492;2023-01-27T19:41:52;66646.91;;;7.08;83.47
44144;BME280;43510;51.920;4.492;2023-01-27T19:44:18;66651.91;;;7.12;83.42
44144;BME280;43510;51.920;4.492;2023-01-27T19:46:43;66657.28;;;7.15;83.67
44144;BME280;43510;51.920;4.492;2023-01-27T19:49:14;66650.97;;;7.14;83.35
44144;BME280;43510;51.920;4.492;2023-01-27T19:56:51;66637.28;;;6.96;83.38
44144;BME280;43510;51.920;4.492;2023-01-27T19:59:16;66627.78;;;6.95;83.51
44144;BME280;43510;51.920;4.492;2023-01-27T20:01:42;66634.69;;;6.96;83.40
44144;BME280;43510;51.920;4.492;2023-01-27T20:04:12;66640.22;;;7.02;83.60
44144;BME280;43510;51.920;4.492;2023-01-27T20:07:10;66634.84;;;6.99;84.28
44144;BME280;43510;51.920;4.492;2023-01-27T20:09:36;66626.50;;;6.91;83.81
44144;BME280;43510;51.920;4.492;2023-01-27T20:12:03;66634.69;;;6.96;84.29
44144;BME280;43510;51.920;4.492;2023-01-27T20:14:30;66644.84;;;7.08;84.10
44144;BME280;43510;51.920;4.492;2023-01-27T20:16:55;66657.47;;;7.17;84.04
44144;BME280;43510;51.920;4.492;2023-01-27T20:19:22;66653.56;;;7.14;84.23
44144;BME280;43510;51.920;4.492;2023-01-27T20:21:48;66658.41;;;7.16;84.34
44144;BME280;43510;51.920;4.492;2023-01-27T20:24:18;66646.91;;;7.08;84.63
44144;BME280;43510;51.920;4.492;2023-01-27T20:26:44;66648.75;;;7.12;84.93
44144;BME280;43510;51.920;4.492;2023-01-27T20:29:09;66639.47;;;7.06;84.76
44144;BME280;43510;51.920;4.492;2023-01-27T20:31:39;66642.28;;;7.01;84.01
44144;BME280;43510;51.920;4.492;2023-01-27T20:34:06;66646.91;;;7.08;84.32
44144;BME280;43510;51.920;4.492;2023-01-27T20:36:31;66630.56;;;6.97;84.35
44144;BME280;43510;51.920;4.492;2023-01-27T20:38:57;66632.06;;;6.96;84.10
44144;BME280;43510;51.920;4.492;2023-01-27T20:41:23;66639.66;;;7.01;84.00
44144;BME280;43510;51.920;4.492;2023-01-27T20:43:54;66647.47;;;7.08;84.15
44144;BME280;43510;51.920;4.492;2023-01-27T20:46:20;66641.50;;;7.05;83.97
44144;BME280;43510;51.920;4.492;2023-01-27T20:48:45;66644.31;;;7.08;84.08
44144;BME280;43510;51.920;4.492;2023-01-27T20:51:13;66638.19;;;7.02;84.31
44144;BME280;43510;51.920;4.492;2023-01-27T20:53:40;66640.41;;;7.04;84.29
44144;BME280;43510;51.920;4.492;2023-01-27T20:56:12;66643.19;;;7.07;84.58
44144;BME280;43510;51.920;4.492;2023-01-27T20:58:42;66649.50;;;7.08;84.09
44144;BME280;43510;51.920;4.492;2023-01-27T21:01:15;66646.50;;;7.10;83.60
44144;BME280;43510;51.920;4.492;2023-01-27T21:03:41;66639.47;;;7.06;83.46
44144;BME280;43510;51.920;4.492;2023-01-27T21:06:15;66638.75;;;7.03;84.14
44144;BME280;43510;51.920;4.492;2023-01-27T21:08:42;66639.47;;;7.06;83.52
44144;BME280;43510;51.920;4.492;2023-01-27T21:11:09;66641.34;;;7.03;83.70
44144;BME280;43510;51.920;4.492;2023-01-27T21:13:48;66637.63;;;7.02;84.12
44144;BME280;43510;51.920;4.492;2023-01-27T21:16:15;66640.56;;;7.07;84.13
44144;BME280;43510;51.920;4.492;2023-01-27T21:18:40;66654.50;;;7.12;83.72
44144;BME280;43510;51.920;4.492;2023-01-27T21:21:06;66652.28;;;7.10;83.84
44144;BME280;43510;51.920;4.492;2023-01-27T21:23:32;66639.84;;;7.04;83.97
44144;BME280;43510;51.920;4.492;2023-01-27T21:26:04;66639.28;;;7.03;84.04
44144;BME280;43510;51.920;4.492;2023-01-27T21:28:31;66640.41;;;7.04;84.64
44144;BME280;43510;51.920;4.492;2023-01-27T21:33:35;66641.34;;;7.03;84.69
44144;BME280;43510;51.920;4.492;2023-01-27T21:36:04;66642.06;;;7.06;84.34
44144;BME280;43510;51.920;4.492;2023-01-27T21:38:31;66642.06;;;7.06;84.17
44144;BME280;43510;51.920;4.492;2023-01-27T21:41:04;66643.00;;;7.04;83.99
44144;BME280;43510;51.920;4.492;2023-01-27T21:43:30;66627.22;;;6.94;84.13
44144;BME280;43510;51.920;4.492;2023-01-27T21:46:14;66628.38;;;6.88;84.21
44144;BME280;43510;51.920;4.492;2023-01-27T21:48:39;66621.88;;;6.85;83.95
44144;BME280;43510;51.920;4.492;2023-01-27T21:51:05;66614.44;;;6.83;84.25
44144;BME280;43510;51.920;4.492;2023-01-27T21:53:32;66614.47;;;6.76;84.37
44144;BME280;43510;51.920;4.492;2023-01-27T21:56:04;66621.88;;;6.85;84.19
44144;BME280;43510;51.920;4.492;2023-01-27T21:58:30;66624.09;;;6.87;84.69
44144;BME280;43510;51.920;4.492;2023-01-27T22:00:57;66624.84;;;6.90;84.43
44144;BME280;43510;51.920;4.492;2023-01-27T22:03:23;66619.81;;;6.85;84.56
44144;BME280;43510;51.920;4.492;2023-01-27T22:05:48;66626.50;;;6.91;84.74
44144;BME280;43510;51.920;4.492;2023-01-27T22:08:14;66624.28;;;6.89;85.05
44144;BME280;43510;51.920;4.492;2023-01-27T22:10:39;66619.28;;;6.85;85.20
44144;BME280;43510;51.920;4.492;2023-01-27T22:13:04;66633.56;;;6.95;84.69
44144;BME280;43510;51.920;4.492;2023-01-27T22:15:32;66630.59;;;6.90;84.85
44144;BME280;43510;51.920;4.492;2023-01-27T22:18:16;66631.84;;;7.01;84.36
44144;BME280;43510;51.920;4.492;2023-01-27T22:20:41;66632.06;;;6.96;84.40
44144;BME280;43510;51.920;4.492;2023-01-27T22:23:11;66625.22;;;6.88;84.95
44144;BME280;43510;51.920;4.492;2023-01-27T22:25:36;66625.22;;;6.88;84.91
44144;BME280;43510;51.920;4.492;2023-01-27T22:28:02;66620.75;;;6.91;84.94
44144;BME280;43510;51.920;4.492;2023-01-27T22:30:27;66631.88;;;6.94;85.20
44144;BME280;43510;51.920;4.492;2023-01-27T22:32:55;66633.00;;;6.95;84.88
44144;BME280;43510;51.920;4.492;2023-01-27T22:35:21;66624.66;;;6.87;84.69
44144;BME280;43510;51.920;4.492;2023-01-27T22:37:47;66624.09;;;6.87;85.19
44144;BME280;43510;51.920;4.492;2023-01-27T22:40:18;66618.75;;;6.77;85.70
44144;BME280;43510;51.920;4.492;2023-01-27T22:42:44;66614.09;;;6.78;84.93
44144;BME280;43510;51.920;4.492;2023-01-27T22:45:09;66619.28;;;6.85;84.98
44144;BME280;43510;51.920;4.492;2023-01-27T22:47:35;66627.25;;;6.87;85.24
44144;BME280;43510;51.920;4.492;2023-01-27T22:50:00;66622.41;;;6.85;85.27
44144;BME280;43510;51.920;4.492;2023-01-27T22:52:34;66616.88;;;6.80;85.10
44144;BME280;43510;51.920;4.492;2023-01-27T22:55:01;66621.34;;;6.84;85.31
44144;BME280;43510;51.920;4.492;2023-01-27T22:57:27;66619.28;;;6.85;85.47
44144;BME280;43510;51.920;4.492;2023-01-27T22:59:54;66613.16;;;6.79;85.60
44144;BME280;43510;51.920;4.492;2023-01-27T23:02:20;66613.16;;;6.79;85.34
44144;BME280;43510;51.920;4.492;2023-01-27T23:04:46;66613.34;;;6.75;85.54
44144;BME280;43510;51.920;4.492;2023-01-27T23:07:19;66608.16;;;6.75;85.58
44144;BME280;43510;51.920;4.492;2023-01-27T23:09:44;66611.88;;;6.76;85.39
44144;BME280;43510;51.920;4.492;2023-01-27T23:12:14;66616.31;;;6.80;85.44
44144;BME280;43510;51.920;4.492;2023-01-27T23:14:40;66600.19;;;6.65;85.63
44144;BME280;43510;51.920;4.492;2023-01-27T23:17:05;66596.47;;;6.64;85.47
44144;BME280;43510;51.920;4.492;2023-01-27T23:19:30;66602.22;;;6.72;85.46
44144;BME280;43510;51.920;4.492;2023-01-27T23:21:56;66604.63;;;6.69;85.34
44144;BME280;43510;51.920;4.492;2023-01-27T23:27:59;66612.44;;;6.76;85.38
44144;BME280;43510;51.920;4.492;2023-01-27T23:30:24;66602.03;;;6.69;85.55
44144;BME280;43510;51.920;4.492;2023-01-27T23:32:49;66607.44;;;6.72;85.50
44144;BME280;43510;51.920;4.492;2023-01-27T23:35:15;66606.31;;;6.71;85.30
44144;BME280;43510;51.920;4.492;2023-01-27T23:37:40;66605.03;;;6.67;85.63
44144;BME280;43510;51.920;4.492;2023-01-27T23:40:06;66598.91;;;6.62;84.68
44144;BME280;43510;51.920;4.492;2023-01-27T23:42:32;66605.38;;;6.72;85.06
44144;BME280;43510;51.920;4.492;2023-01-27T23:44:57;66605.38;;;6.72;84.87
44144;BME280;43510;51.920;4.492;2023-01-27T23:47:32;66602.44;;;6.67;84.94
44144;BME280;43510;51.920;4.492;2023-01-27T23:49:58;66597.59;;;6.65;84.78
44144;BME280;43510;51.920;4.492;2023-01-27T23:52:24;66601.31;;;6.66;84.44
44144;BME280;43510;51.920;4.492;2023-01-27T23:54:51;66593.16;;;6.61;84.56
44144;BME280;43510;51.920;4.492;2023-01-27T23:57:17;66597.03;;;6.65;84.42
44144;BME280;43510;51.920;4.492;2023-01-27T23:59:52;66589.81;;;6.58;84.58
